createdAt,value
2018-01-10T00:03:59.850Z,"    0"
2018-01-10T00:08:57.116Z,"    0"
2018-01-10T00:13:52.699Z,"    0"
2018-01-10T00:18:48.642Z,"    0"
2018-01-10T00:23:45.415Z,"    0"
2018-01-10T00:28:42.018Z,"    0"
2018-01-10T00:33:38.922Z,"    0"
2018-01-10T00:38:34.481Z,"    0"
2018-01-10T00:43:31.209Z,"    0"
2018-01-10T00:48:26.764Z,"    0"
2018-01-10T00:53:24.306Z,"    0"
2018-01-10T00:58:20.944Z,"    0"
2018-01-10T01:03:17.318Z,"    0"
2018-01-10T01:08:13.811Z,"    0"
2018-01-10T01:13:11.366Z,"    0"
2018-01-10T01:18:09.267Z,"    0"
2018-01-10T01:23:05.506Z,"    0"
2018-01-10T01:28:00.939Z,"    0"
2018-01-10T01:32:57.714Z,"    0"
2018-01-10T01:37:53.356Z,"    0"
2018-01-10T01:42:49.307Z,"    0"
2018-01-10T01:47:45.648Z,"    0"
2018-01-10T01:52:42.498Z,"    0"
2018-01-10T01:57:39.033Z,"    0"
2018-01-10T02:02:34.356Z,"    0"
2018-01-10T02:07:29.993Z,"    0"
2018-01-10T02:12:25.684Z,"    0"
2018-01-10T02:17:21.282Z,"    0"
2018-01-10T02:22:17.040Z,"    0"
2018-01-10T02:27:13.166Z,"    0"
2018-01-10T02:32:09.743Z,"    0"
2018-01-10T02:37:06.668Z,"    0"
2018-01-10T02:42:02.227Z,"    0"
2018-01-10T02:46:57.874Z,"    0"
2018-01-10T02:51:53.633Z,"    0"
2018-01-10T02:56:50.686Z,"    0"
2018-01-10T03:01:45.670Z,"    0"
2018-01-10T03:06:43.246Z,"    0"
2018-01-10T03:11:40.533Z,"    0"
2018-01-10T03:16:36.396Z,"    0"
2018-01-10T03:21:34.010Z,"    0"
2018-01-10T03:26:30.324Z,"    0"
2018-01-10T03:31:26.662Z,"    0"
2018-01-10T03:36:23.796Z,"    0"
2018-01-10T03:41:18.945Z,"    0"
2018-01-10T03:46:14.774Z,"    0"
2018-01-10T03:51:11.334Z,"    0"
2018-01-10T03:56:06.683Z,"    0"
2018-01-10T04:01:03.459Z,"    0"
2018-01-10T04:06:00.009Z,"    0"
2018-01-10T04:10:56.925Z,"    0"
2018-01-10T04:15:52.461Z,"    0"
2018-01-10T04:20:49.164Z,"    0"
2018-01-10T04:25:45.843Z,"    0"
2018-01-10T04:30:42.386Z,"    0"
2018-01-10T04:35:37.872Z,"    0"
2018-01-10T04:40:34.604Z,"    0"
2018-01-10T04:45:30.274Z,"    0"
2018-01-10T04:50:26.988Z,"    0"
2018-01-10T04:55:22.546Z,"    0"
2018-01-10T05:00:18.270Z,"    0"
2018-01-10T05:05:15.045Z,"    0"
2018-01-10T05:10:10.745Z,"    0"
2018-01-10T05:15:09.486Z,"    0"
2018-01-10T05:20:04.422Z,"    0"
2018-01-10T05:25:00.253Z,"    0"
2018-01-10T05:29:58.145Z,"    0"
2018-01-10T05:34:54.747Z,"    0"
2018-01-10T05:39:51.424Z,"    0"
2018-01-10T05:44:47.066Z,"    0"
2018-01-10T05:49:44.693Z,"    0"
2018-01-10T05:54:40.476Z,"    0"
2018-01-10T05:59:37.995Z,"    0"
2018-01-10T06:04:35.207Z,"    0"
2018-01-10T06:09:31.286Z,"    0"
2018-01-10T06:14:27.764Z,"    0"
2018-01-10T06:19:24.345Z,"    0"
2018-01-10T06:24:20.249Z,"    0"
2018-01-10T06:29:16.052Z,"    0"
2018-01-10T06:34:11.757Z,"    0"
2018-01-10T06:39:07.806Z,"    0"
2018-01-10T06:44:04.039Z,"    0"
2018-01-10T06:48:59.867Z,"    0"
2018-01-10T06:53:55.677Z,"    0"
2018-01-10T06:58:52.376Z,"    0"
2018-01-10T07:03:49.831Z,"    4"
2018-01-10T07:08:44.742Z,"    8"
2018-01-10T07:13:40.369Z,"   16"
2018-01-10T07:18:36.061Z,"   32"
2018-01-10T07:23:31.946Z,"   52"
2018-01-10T07:28:27.876Z,"   92"
2018-01-10T07:33:24.606Z,"  124"
2018-01-10T07:38:21.556Z,"  164"
2018-01-10T07:43:19.077Z,"  184"
2018-01-10T07:48:15.389Z,"  284"
2018-01-10T07:53:10.888Z,"  440"
2018-01-10T07:58:07.795Z,"  544"
2018-01-10T08:03:04.305Z,"  608"
2018-01-10T08:08:01.064Z,"  780"
2018-01-10T08:12:57.729Z,"  892"
2018-01-10T08:17:54.181Z,"  956"
2018-01-10T08:22:52.518Z,"  844"
2018-01-10T08:27:48.918Z," 1112"
2018-01-10T08:32:45.703Z," 1636"
2018-01-10T08:37:41.328Z," 1916"
2018-01-10T08:47:42.422Z," 3212"
2018-01-10T08:52:39.214Z," 3332"
2018-01-10T08:57:36.178Z," 3048"
2018-01-10T09:02:34.743Z," 3332"
2018-01-10T09:07:31.912Z," 3288"
2018-01-10T09:12:27.405Z," 3288"
2018-01-10T09:17:24.281Z," 3840"
2018-01-10T09:22:20.990Z," 3812"
2018-01-10T09:27:19.144Z," 2912"
2018-01-10T09:32:14.752Z," 2080"
2018-01-10T09:37:11.673Z," 1716"
2018-01-10T09:42:11.218Z," 1264"
2018-01-10T09:47:08.220Z," 1248"
2018-01-10T09:52:05.876Z," 1092"
2018-01-10T10:07:07.132Z," 2280"
2018-01-10T10:12:04.100Z," 2280"
2018-01-10T10:22:04.058Z," 3864"
2018-01-10T10:27:01.784Z," 4360"
2018-01-10T10:37:05.596Z," 5004"
2018-01-10T10:42:05.030Z," 5328"
2018-01-10T10:47:06.059Z," 3672"
2018-01-10T10:52:03.664Z," 3120"
2018-01-10T10:56:59.896Z," 2748"
2018-01-10T11:01:56.085Z," 2248"
2018-01-10T11:06:53.299Z," 2028"
2018-01-10T11:11:50.162Z," 2264"
2018-01-10T11:16:47.683Z," 2492"
2018-01-10T11:21:43.055Z," 3268"
2018-01-10T11:26:41.231Z," 3468"
2018-01-10T11:31:37.934Z," 5320"
2018-01-10T11:36:35.172Z," 5412"
2018-01-10T11:41:32.700Z," 5292"
2018-01-10T11:46:28.628Z," 5956"
2018-01-10T11:51:24.418Z," 7064"
2018-01-10T11:56:22.774Z," 7500"
2018-01-10T12:01:19.962Z," 7516"
2018-01-10T12:06:17.635Z," 6748"
2018-01-10T12:11:15.043Z," 6672"
2018-01-10T12:16:11.243Z," 6896"
2018-01-10T12:21:09.073Z," 5836"
2018-01-10T12:26:05.004Z," 6712"
2018-01-10T12:31:03.584Z," 7912"
2018-01-10T12:35:59.520Z," 6580"
2018-01-10T12:40:58.440Z," 4600"
2018-01-10T12:45:55.688Z," 3976"
2018-01-10T12:50:53.442Z," 4008"
2018-01-10T12:55:49.693Z," 3320"
2018-01-10T13:00:45.937Z," 3064"
2018-01-10T13:05:42.753Z," 3016"
2018-01-10T13:10:38.120Z," 2908"
2018-01-10T13:15:38.503Z," 3160"
2018-01-10T13:20:38.262Z," 2708"
2018-01-10T13:25:35.954Z," 2640"
2018-01-10T13:30:33.237Z," 3164"
2018-01-10T13:35:29.714Z," 3776"
2018-01-10T13:40:26.910Z," 4372"
2018-01-10T13:45:23.784Z," 2700"
2018-01-10T13:50:20.888Z," 2296"
2018-01-10T13:55:18.887Z," 2796"
2018-01-10T14:00:14.235Z," 2656"
2018-01-10T14:05:11.663Z," 2496"
2018-01-10T14:10:09.266Z," 2052"
2018-01-10T14:15:05.474Z," 1640"
2018-01-10T14:20:01.180Z," 1476"
2018-01-10T14:24:57.945Z," 1464"
2018-01-10T14:29:53.629Z," 1316"
2018-01-10T14:34:50.382Z," 1240"
2018-01-10T14:39:47.146Z," 1088"
2018-01-10T14:44:42.647Z,"  800"
2018-01-10T14:49:39.885Z,"  768"
2018-01-10T14:54:36.340Z,"  652"
2018-01-10T14:59:32.733Z,"  536"
2018-01-10T15:04:28.532Z,"  548"
2018-01-10T15:09:25.165Z,"  436"
2018-01-10T15:14:20.581Z,"  320"
2018-01-10T15:19:16.256Z,"  252"
2018-01-10T15:24:11.955Z,"  196"
2018-01-10T15:29:09.605Z,"  152"
2018-01-10T15:34:09.069Z,"  108"
2018-01-10T15:39:05.217Z,"   68"
2018-01-10T15:44:02.631Z,"   52"
2018-01-10T15:48:58.834Z,"   32"
2018-01-10T15:53:54.397Z,"   20"
2018-01-10T15:58:50.971Z,"   12"
2018-01-10T16:03:47.431Z,"    4"
2018-01-10T16:08:42.586Z,"    4"
2018-01-10T16:13:37.830Z,"    4"
2018-01-10T16:18:34.702Z,"    0"
2018-01-10T16:23:31.651Z,"    0"
2018-01-10T16:28:27.892Z,"    0"
2018-01-10T16:33:23.315Z,"    0"
2018-01-10T16:38:19.893Z,"    0"
2018-01-10T16:43:17.317Z,"    0"
2018-01-10T16:48:13.625Z,"    0"
2018-01-10T16:53:10.139Z,"    0"
2018-01-10T16:58:06.690Z,"    0"
2018-01-10T17:03:03.135Z,"    0"
2018-01-10T17:07:59.504Z,"    0"
2018-01-10T17:12:56.632Z,"    0"
2018-01-10T17:17:53.631Z,"    0"
2018-01-10T17:22:49.721Z,"    0"
2018-01-10T17:27:46.863Z,"    0"
2018-01-10T17:32:42.724Z,"    0"
2018-01-10T17:37:38.554Z,"    0"
2018-01-10T17:42:35.148Z,"    0"
2018-01-10T17:47:30.547Z,"    0"
2018-01-10T17:52:27.218Z,"    0"
2018-01-10T17:57:23.669Z,"    0"
2018-01-10T18:02:21.041Z,"    0"
2018-01-10T18:07:16.064Z,"    0"
2018-01-10T18:12:12.088Z,"    0"
2018-01-10T18:17:08.950Z,"    0"
2018-01-10T18:22:04.239Z,"    0"
2018-01-10T18:27:00.035Z,"    0"
2018-01-10T18:31:55.716Z,"    0"
2018-01-10T18:36:51.161Z,"    0"
2018-01-10T18:41:47.927Z,"    0"
2018-01-10T18:46:44.863Z,"    0"
2018-01-10T18:51:40.417Z,"    0"
2018-01-10T18:56:36.319Z,"    0"
2018-01-10T19:01:33.307Z,"    0"
2018-01-10T19:06:29.862Z,"    0"
2018-01-10T19:11:25.383Z,"    0"
2018-01-10T19:16:22.807Z,"    0"
2018-01-10T19:21:19.061Z,"    0"
2018-01-10T19:26:14.415Z,"    0"
2018-01-10T19:31:11.241Z,"    0"
2018-01-10T19:36:06.619Z,"    0"
2018-01-10T19:41:02.230Z,"    0"
2018-01-10T19:46:00.039Z,"    0"
2018-01-10T19:50:56.309Z,"    0"
2018-01-10T19:55:55.587Z,"    0"
2018-01-10T20:00:51.751Z,"    0"
2018-01-10T20:05:47.024Z,"    0"
2018-01-10T20:10:42.460Z,"    0"
2018-01-10T20:15:38.101Z,"    0"
2018-01-10T20:20:33.894Z,"    0"
2018-01-10T20:25:30.511Z,"    0"
2018-01-10T20:30:26.860Z,"    0"
2018-01-10T20:35:23.295Z,"    0"
2018-01-10T20:40:20.205Z,"    0"
2018-01-10T20:45:15.819Z,"    0"
2018-01-10T20:50:13.660Z,"    0"
2018-01-10T20:55:09.102Z,"    0"
2018-01-10T21:00:04.800Z,"    0"
2018-01-10T21:05:01.549Z,"    0"
2018-01-10T21:09:56.954Z,"    0"
2018-01-10T21:14:52.542Z,"    0"
2018-01-10T21:19:48.270Z,"    0"
2018-01-10T21:24:43.759Z,"    0"
2018-01-10T21:29:40.520Z,"    0"
2018-01-10T21:34:36.198Z,"    0"
2018-01-10T21:39:31.826Z,"    0"
2018-01-10T21:44:28.922Z,"    0"
2018-01-10T21:49:24.470Z,"    0"
2018-01-10T21:54:21.715Z,"    0"
2018-01-10T21:59:17.101Z,"    0"
2018-01-10T22:04:14.729Z,"    0"
2018-01-10T22:09:09.961Z,"    0"
2018-01-10T22:14:06.443Z,"    0"
2018-01-10T22:19:02.821Z,"    0"
2018-01-10T22:23:59.682Z,"    0"
2018-01-10T22:28:55.227Z,"    0"
2018-01-10T22:33:50.777Z,"    0"
2018-01-10T22:38:46.494Z,"    0"
2018-01-10T22:43:43.201Z,"    0"
2018-01-10T22:48:39.638Z,"    0"
2018-01-10T22:53:36.377Z,"    0"
2018-01-10T22:58:31.642Z,"    0"
2018-01-10T23:03:27.561Z,"    0"
2018-01-10T23:08:24.370Z,"    0"
2018-01-10T23:13:19.794Z,"    0"
2018-01-10T23:18:17.580Z,"    0"
2018-01-10T23:23:12.933Z,"    0"
2018-01-10T23:28:09.722Z,"    0"
2018-01-10T23:33:04.821Z,"    0"
2018-01-10T23:38:01.731Z,"    0"
2018-01-10T23:42:57.228Z,"    0"
2018-01-10T23:47:53.072Z,"    0"
2018-01-10T23:52:49.953Z,"    0"
2018-01-10T23:57:45.066Z,"    0"
